Kirkland, Illinois
Current Conditions -  °F | °C
As of 5:15 AM on Thursday 23 Oct 2014 (Local Time) from KDKB Reporting Station
Haze Haze  
Wind Chill: 28°   Ceiling: Unl
Heat Index: 34°   Visibility: 4mi
Dew Point: 33°   Wind: 7mph
Humidity: 96%   Direction: 150°SSE
Pressure: 30.21"   Gusts: NA
Location:  42.09°N, 88.85°W
Report Text: KDKB 231015Z AUTO 15006KT 4SM BR CLR 01/01 A3021 RMK AO2 T00100005
Loading
Personal Weather Stations






























Interactive Weather Map
Tropical Storm Tracking
New forecast layout! Learn more

10-Day Weather Forecast

Advertisements
Track Severe Weather on mobile